Latest Weather Observations for Melbourne (Olympic Park)

IDV60901

Issued at 7:35 am EDT Thursday 27 November 2014 (issued every 10 minutes, with the page automatically refreshed every 10 minutes)

About weather observations | Map of Melbourne area stations | Latest observations for Melbourne area | Other Formats
Station Details ID: 086338 Name: MELBOURNE (OLYMPIC PARK) Lat: -37.83 Lon: 144.98 Height: 7.53 m
Data from the previous 72 hours. | See also: Recent months at Melbourne (Olympic Park)
Date/Time
EDT
Tmp

°C
App
Tmp
°C
Dew
Point
°C
Rel
Hum
%
Delta-T

°C
Wind Press
QNH
hPa
Press
MSL
hPa
Rain
since
9 am
mm
Dir
 
Spd
km/h
Gust
km/h
Spd
kts
Gust
kts
27/07:30am 13.9 10.8 5.5 57 3.9 SSE 11 19 6 10 1025.5 1025.5 0.0
27/07:00am 13.4 10.3 5.6 59 3.6 S 11 17 6 9 1025.4 1025.4 0.0
27/06:30am 13.4 10.7 5.8 60 3.6 SE 9 13 5 7 1025.0 1025.0 0.0
27/06:00am 13.2 10.4 5.1 58 3.7 SE 9 17 5 9 1024.8 1024.8 0.0
27/05:30am 13.3 11.1 6.2 62 3.4 SSE 7 15 4 8 1024.5 1024.5 0.0
27/05:00am 13.3 11.0 5.7 60 3.6 SSE 7 11 4 6 1024.2 1024.2 0.0
27/04:30am 13.2 10.5 5.4 59 3.6 S 9 15 5 8 1024.1 1024.1 0.0
27/04:00am 13.4 10.8 6.0 61 3.5 SSE 9 13 5 7 1023.7 1023.7 0.0
27/03:30am 13.6 10.5 5.5 58 3.8 SSE 11 17 6 9 1023.5 1023.5 0.0
27/03:00am 13.8 10.4 5.9 59 3.7 SSE 13 22 7 12 1023.7 1023.7 0.0
27/02:30am 14.0 11.4 5.9 58 3.8 SSE 9 17 5 9 1023.6 1023.6 0.0
27/02:00am 14.1 11.1 6.2 59 3.8 SSE 11 17 6 9 1023.8 1023.8 0.0
27/01:30am 14.1 11.6 6.5 60 3.7 SSE 9 17 5 9 1024.0 1024.0 0.0
27/01:00am 13.9 11.4 6.5 61 3.5 SSE 9 17 5 9 1024.2 1024.2 0.0
27/12:30am 14.0 11.4 5.9 58 3.8 S 9 19 5 10 1024.5 1024.5 0.0
27/12:00am 14.2 11.6 6.1 58 3.8 S 9 17 5 9 1024.6 1024.6 0.0
 
Date/Time
EDT
Tmp

°C
App
Tmp
°C
Dew
Point
°C
Rel
Hum
%
Delta-T

°C
Wind Press
QNH
hPa
Press
MSL
hPa
Rain
since
9 am
mm
Dir
 
Spd
km/h
Gust
km/h
Spd
kts
Gust
kts
26/11:30pm 14.4 11.5 6.7 60 3.7 S 11 19 6 10 1024.6 1024.6 0.0
26/11:00pm 14.5 11.3 6.8 60 3.7 S 13 26 7 14 1024.6 1024.6 0.0
26/10:30pm 14.6 12.0 7.6 63 3.5 S 11 22 6 12 1024.5 1024.5 0.0
26/10:00pm 14.6 11.6 7.9 64 3.3 SSE 13 26 7 14 1024.3 1024.3 0.0
26/09:30pm 14.7 11.8 8.0 64 3.3 S 13 22 7 12 1024.0 1024.0 0.0
26/09:00pm 14.8 11.9 8.1 64 3.3 SSE 13 19 7 10 1023.7 1023.7 0.0
26/08:30pm 15.0 12.2 8.5 65 3.3 SSE 13 28 7 15 1023.5 1023.5 0.0
26/08:00pm 15.2 12.5 8.9 66 3.2 S 13 26 7 14 1023.4 1023.4 0.0
26/07:30pm 15.4 13.2 9.5 68 3.0 S 11 20 6 11 1023.1 1023.1 0.0
26/07:00pm 15.6 13.5 9.7 68 3.1 S 11 20 6 11 1022.8 1022.8 0.0
26/06:30pm 15.6 12.9 10.2 70 2.8 S 15 26 8 14 1022.5 1022.5 0.0
26/06:00pm 15.4 13.3 11.0 75 2.3 S 13 22 7 12 1022.3 1022.3 0.0
26/05:30pm 14.5 12.1 11.3 81 1.7 S 15 24 8 13 1022.3 1022.3 0.0
26/05:00pm 15.7 13.3 11.3 75 2.4 S 15 26 8 14 1022.1 1022.1 0.0
26/04:30pm 16.1 13.5 12.1 77 2.2 S 17 32 9 17 1022.0 1022.0 0.0
26/04:00pm 16.6 14.6 12.8 78 2.1 S 15 26 8 14 1022.0 1022.0 0.0
26/03:30pm 17.0 14.7 11.7 71 2.9 S 15 24 8 13 1021.7 1021.7 0.0
26/03:00pm 17.8 15.8 10.2 61 4.0 SSW 11 20 6 11 1021.6 1021.6 0.0
26/02:30pm 18.1 16.6 9.2 56 4.7 SSW 7 15 4 8 1021.5 1021.5 0.0
26/02:00pm 18.0 16.4 8.8 55 4.7 S 7 13 4 7 1021.6 1021.6 0.0
26/01:30pm 17.9 15.6 9.0 56 4.6 SW 11 17 6 9 1021.7 1021.7 0.0
26/01:00pm 17.8 15.3 9.7 59 4.2 S 13 20 7 11 1021.8 1021.8 0.0
26/12:30pm 17.8 15.7 9.9 60 4.2 S 11 20 6 11 1021.8 1021.8 0.0
26/12:00pm 18.0 16.2 9.4 57 4.5 SW 9 17 5 9 1021.8 1021.8 0.0
26/11:30am 16.7 14.4 9.1 61 3.9 S 11 17 6 9 1022.0 1022.0 0.0
26/11:00am 16.7 14.9 9.6 63 3.7 SSW 9 17 5 9 1021.9 1021.9 0.0
26/10:30am 16.2 14.0 9.2 63 3.6 SSW 11 17 6 9 1022.0 1022.0 0.0
26/10:00am 15.8 13.4 8.8 63 3.6 SW 11 24 6 13 1022.0 1022.0 0.0
26/09:30am 15.0 12.9 8.3 64 3.4 W 9 17 5 9 1022.0 1022.0 0.0
26/09:00am 15.0 13.7 7.5 61 3.7 W 4 11 2 6 1021.8 1021.8 0.0
26/08:30am 14.1 12.4 7.4 64 3.3 WSW 6 11 3 6 1021.6 1021.6 0.0
26/08:00am 13.4 11.5 7.4 67 2.9 W 7 11 4 6 1021.5 1021.5 0.0
26/07:30am 12.7 10.3 7.0 68 2.7 WNW 9 11 5 6 1021.4 1021.4 0.0
26/07:00am 12.5 10.7 7.2 70 2.5 WNW 6 11 3 6 1021.1 1021.1 0.0
26/06:30am 12.3 10.3 7.2 71 2.5 WNW 7 13 4 7 1021.0 1021.0 0.0
26/06:00am 12.1 10.3 7.2 72 2.4 W 6 11 3 6 1020.7 1020.7 0.0
26/05:30am 12.2 10.4 7.3 72 2.4 NW 6 11 3 6 1020.5 1020.5 0.0
26/05:00am 12.2 10.9 7.5 73 2.3 NW 4 7 2 4 1020.2 1020.2 0.0
26/04:30am 12.2 10.8 7.3 72 2.4 WNW 4 9 2 5 1020.3 1020.3 0.0
26/04:00am 12.4 11.1 7.5 72 2.4 NW 4 9 2 5 1020.3 1020.3 0.0
26/03:30am 12.5 11.8 7.0 69 2.6 CALM 0 6 0 3 1020.3 1020.3 0.0
26/03:00am 13.0 11.1 6.8 66 3.0 W 6 9 3 5 1020.3 1020.3 0.0
26/02:30am 13.1 11.6 6.9 66 3.0 W 4 11 2 6 1020.5 1020.5 0.0
26/02:00am 13.2 11.7 7.0 66 3.0 W 4 11 2 6 1020.7 1020.7 0.0
26/01:30am 13.5 11.6 6.6 63 3.3 WSW 6 9 3 5 1020.8 1020.8 0.0
26/01:00am 14.1 11.9 6.0 58 3.8 W 7 13 4 7 1021.1 1021.1 0.0
26/12:30am 14.5 12.3 6.1 57 4.0 W 7 15 4 8 1021.3 1021.3 0.0
26/12:00am 14.7 12.2 6.5 58 4.0 W 9 15 5 8 1021.5 1021.5 0.0
 
Date/Time
EDT
Tmp

°C
App
Tmp
°C
Dew
Point
°C
Rel
Hum
%
Delta-T

°C
Wind Press
QNH
hPa
Press
MSL
hPa
Rain
since
9 am
mm
Dir
 
Spd
km/h
Gust
km/h
Spd
kts
Gust
kts
25/11:30pm 14.9 12.4 6.7 58 4.0 W 9 13 5 7 1021.7 1021.7 0.0
25/11:00pm 15.4 13.2 7.7 60 3.8 SW 9 20 5 11 1021.8 1021.8 0.0
25/10:30pm 15.8 13.6 7.8 59 4.0 SSW 9 17 5 9 1021.7 1021.7 0.0
25/10:00pm 16.0 13.1 8.0 59 4.0 SSW 13 26 7 14 1021.5 1021.5 0.0
25/09:30pm 15.7 14.0 10.0 69 3.0 S 9 20 5 11 1021.1 1021.1 0.0
25/09:00pm 15.6 13.4 9.5 67 3.1 S 11 20 6 11 1020.9 1020.9 0.0
25/08:30pm 15.5 13.4 9.6 68 3.1 SSE 11 22 6 12 1020.6 1020.6 0.0
25/08:00pm 15.9 13.4 9.8 67 3.2 SSE 13 22 7 12 1020.4 1020.4 0.0
25/07:30pm 16.0 13.9 9.9 67 3.2 S 11 19 6 10 1020.0 1020.0 0.0
25/07:00pm 16.4 13.7 10.3 67 3.2 S 15 26 8 14 1019.5 1019.5 0.0
25/06:30pm 17.3 14.7 9.5 60 4.1 S 13 20 7 11 1019.1 1019.1 0.0
25/06:00pm 17.7 15.1 9.3 58 4.4 S 13 20 7 11 1018.7 1018.7 0.0
25/05:30pm 18.6 16.2 9.9 57 4.6 S 13 20 7 11 1018.5 1018.5 0.0
25/05:00pm 18.6 15.8 8.6 52 5.2 S 13 22 7 12 1018.4 1018.4 0.0
25/04:30pm 19.4 15.4 6.8 44 6.3 S 17 28 9 15 1018.4 1018.4 0.0
25/04:00pm 20.1 16.4 6.4 41 6.9 S 15 26 8 14 1018.5 1018.5 0.0
25/03:30pm 19.4 15.7 6.5 43 6.4 S 15 20 8 11 1018.5 1018.5 0.0
25/03:00pm 20.3 17.2 5.5 38 7.3 WSW 11 26 6 14 1018.5 1018.5 0.0
25/02:30pm 19.0 15.9 7.4 47 5.9 S 13 26 7 14 1018.4 1018.4 0.0
25/02:00pm 19.6 16.2 6.0 41 6.7 SW 13 26 7 14 1018.6 1018.6 0.0
25/01:30pm 18.5 15.5 7.9 50 5.4 S 13 24 7 13 1018.6 1018.6 0.0
25/01:00pm 18.8 15.6 6.9 46 6.0 SW 13 26 7 14 1018.7 1018.7 0.0
25/12:30pm 18.9 15.4 7.0 46 6.0 SSW 15 24 8 13 1018.7 1018.7 0.0
25/12:00pm 18.2 15.0 7.0 48 5.6 WSW 13 26 7 14 1018.9 1018.9 0.0
25/11:30am 17.7 15.2 6.6 48 5.5 SSW 9 20 5 11 1018.9 1018.9 0.0
25/11:00am 17.5 14.5 7.8 53 4.9 SW 13 20 7 11 1019.0 1019.0 0.0
25/10:30am 16.9 14.4 8.1 56 4.5 W 11 24 6 13 1019.1 1019.1 0.0
25/10:00am 16.8 14.0 8.5 58 4.2 W 13 20 7 11 1019.0 1019.0 0.0
25/09:30am 15.7 11.5 8.2 61 3.8 SW 20 30 11 16 1019.0 1019.0 0.0
25/09:00am 15.3 12.4 8.3 63 3.5 W 13 24 7 13 1018.5 1018.5 12.6
25/08:30am 14.3 11.5 8.7 69 2.8 NW 13 20 7 11 1018.2 1018.2 12.6
25/08:00am 13.1 10.6 8.2 72 2.4 WNW 11 17 6 9 1017.6 1017.6 12.6
25/07:30am 13.2 11.5 8.5 73 2.3 WNW 7 13 4 7 1017.2 1017.2 12.6
25/07:00am 12.1 9.9 7.8 75 2.1 NW 9 15 5 8 1016.6 1016.6 12.6
25/06:30am 11.6 9.6 7.3 75 2.1 WNW 7 11 4 6 1016.3 1016.3 12.6
25/06:00am 11.5 9.1 7.2 75 2.1 WNW 9 15 5 8 1015.9 1015.9 12.6
25/05:30am 11.7 9.0 7.2 74 2.2 WNW 11 22 6 12 1015.6 1015.6 12.6
25/05:00am 11.8 9.5 7.3 74 2.2 W 9 20 5 11 1015.2 1015.2 12.6
25/04:30am 11.6 9.8 7.1 74 2.2 WSW 6 9 3 5 1015.0 1015.0 12.6
25/04:00am 11.9 9.2 7.2 73 2.3 WNW 11 20 6 11 1014.9 1014.9 12.6
25/03:30am 12.1 10.1 7.2 72 2.4 W 7 20 4 11 1014.9 1014.9 12.6
25/03:00am 12.3 10.0 7.4 72 2.4 WNW 9 17 5 9 1014.9 1014.9 12.6
25/02:30am 12.5 10.2 7.4 71 2.5 WNW 9 15 5 8 1014.9 1014.9 12.6
25/02:00am 12.3 11.0 7.6 73 2.3 W 4 9 2 5 1014.7 1014.7 12.6
25/01:30am 12.6 10.4 7.7 72 2.4 WNW 9 17 5 9 1014.5 1014.5 12.6
25/01:00am 12.9 11.2 7.6 70 2.6 WNW 6 13 3 7 1014.5 1014.5 12.6
25/12:30am 13.0 11.0 7.2 68 2.8 W 7 11 4 6 1014.5 1014.5 12.6
25/12:00am 13.3 11.0 7.3 67 2.9 W 9 17 5 9 1014.3 1014.3 12.6
 
Date/Time
EDT
Tmp

°C
App
Tmp
°C
Dew
Point
°C
Rel
Hum
%
Delta-T

°C
Wind Press
QNH
hPa
Press
MSL
hPa
Rain
since
9 am
mm
Dir
 
Spd
km/h
Gust
km/h
Spd
kts
Gust
kts
24/11:30pm 13.5 11.7 7.9 69 2.8 W 7 13 4 7 1014.0 1014.0 12.6
24/11:00pm 13.8 12.0 9.3 74 2.3 W 9 15 5 8 1013.8 1013.8 12.6
24/10:30pm 13.8 12.8 10.4 80 1.8 W 6 15 3 8 1013.8 1013.8 12.6
24/10:00pm 14.2 13.1 10.6 79 1.9 W 7 17 4 9 1013.5 1013.5 12.6
24/09:30pm 14.6 13.5 10.6 77 2.1 W 7 20 4 11 1013.0 1013.0 12.6
24/09:00pm 14.7 14.5 11.8 83 1.6 W 4 13 2 7 1012.7 1012.7 12.6
24/08:30pm 14.5 12.5 11.6 83 1.6 SSW 13 28 7 15 1012.1 1012.1 12.6
24/08:00pm 14.9 13.7 11.7 81 1.7 W 9 19 5 10 1011.6 1011.6 12.6
24/07:30pm 14.8 14.4 12.5 86 1.3 - 6 - 3 - 1010.8 1010.8 12.6
24/07:00pm 15.5 13.5 13.9 90 0.9 SSW 17 35 9 19 1010.2 1010.2 12.6
24/06:30pm 17.1 16.2 13.8 81 1.9 SSW 11 22 6 12 1008.8 1008.8 12.2
24/06:00pm 17.8 17.6 14.7 82 1.8 SSW 9 17 5 9 1008.0 1008.0 12.2
24/05:30pm 17.3 18.0 15.6 90 1.0 WSW 6 15 3 8 1007.4 1007.4 12.2
24/05:00pm 16.8 16.9 15.5 92 0.8 SW 9 28 5 15 1007.0 1007.0 12.2
24/04:30pm 16.9 16.5 16.3 96 0.4 SW 13 24 7 13 1006.7 1006.7 12.2
24/04:00pm 17.8 19.3 17.6 99 0.1 SSW 6 9 3 5 1006.5 1006.5 11.6
24/03:30pm 17.5 19.1 17.0 97 0.3 WSW 4 7 2 4 1006.7 1006.7 10.0
24/03:00pm 17.9 18.6 17.1 95 0.5 SW 9 17 5 9 1006.7 1006.7 8.8
24/02:30pm 18.9 19.5 17.6 92 0.8 SSW 11 22 6 12 1006.1 1006.1 8.4
24/02:00pm 19.4 22.0 17.4 88 1.2 CALM 0 6 0 3 1006.0 1006.0 8.2
24/01:30pm 18.9 20.0 18.1 95 0.5 ESE 9 13 5 7 1005.5 1005.5 8.2
24/01:26pm 18.5 19.9 17.7 95 0.5 ESE 7 13 4 7 1006.0 1006.0 8.2
24/01:00pm 18.7 20.2 17.7 94 0.6 SSE 6 11 3 6 1008.0 1008.0 6.6
24/12:30pm 17.3 18.5 16.8 97 0.3 ESE 6 11 3 6 1008.1 1008.1 6.4
24/12:00pm 17.2 18.8 16.9 98 0.2 SE 4 7 2 4 1009.1 1009.1 4.6
24/11:30am 17.0 17.9 16.5 97 0.3 SSE 7 11 4 6 1009.2 1009.2 3.8
24/11:00am 17.2 18.3 15.7 91 0.9 NE 4 7 2 4 1009.5 1009.5 1.2
24/10:30am 16.8 17.9 15.5 92 0.8 SSE 4 7 2 4 1009.3 1009.3 1.2
24/10:00am 17.1 18.8 15.3 89 1.0 CALM 0 6 0 3 1009.7 1009.7 0.4
24/09:30am 16.9 18.2 15.2 90 1.0 SSW 2 6 1 3 1009.8 1009.8 0.2
24/09:00am 16.5 16.6 14.5 88 1.1 WSW 7 13 4 7 1009.6 1009.6 1.2
24/08:30am 17.7 16.2 13.2 75 2.5 W 13 20 7 11 1009.8 1009.8 0.0
24/08:24am 17.4 17.0 12.9 75 2.5 NNW 7 28 4 15 1009.8 1009.8 0.0
24/08:00am 16.5 15.6 12.5 77 2.2 N 9 15 5 8 1007.6 1007.6 0.0

Latest Capital City Observations: Canberra | Sydney | Melbourne | Brisbane | Adelaide | Perth | Hobart | Darwin

Other Formats:

Comma delimited format used in spreadsheet applications
http://www.bom.gov.au/fwo/IDV60901/IDV60901.95936.axf

JavaScript Object Notation format (JSON) in row-major order
http://www.bom.gov.au/fwo/IDV60901/IDV60901.95936.json